createdAt,value
2022-09-23T00:01:02.502Z,3.79
2022-09-23T00:03:32.012Z,3.79
2022-09-23T00:06:03.607Z,3.74
2022-09-23T00:08:30.911Z,3.71
2022-09-23T00:11:03.529Z,3.68
2022-09-23T00:13:30.154Z,3.70
2022-09-23T00:15:56.779Z,3.69
2022-09-23T00:18:23.394Z,3.70
2022-09-23T00:20:50.081Z,3.67
2022-09-23T00:23:16.707Z,3.65
2022-09-23T00:25:43.352Z,3.63
2022-09-23T00:28:10.026Z,3.60
2022-09-23T00:30:36.950Z,3.55
2022-09-23T00:33:03.595Z,3.53
2022-09-23T00:35:30.161Z,3.53
2022-09-23T00:37:56.854Z,3.53
2022-09-23T00:40:23.533Z,3.52
2022-09-23T00:42:52.177Z,3.49
2022-09-23T00:45:19.701Z,3.49
2022-09-23T00:47:52.850Z,3.47
2022-09-23T00:50:22.578Z,3.48
2022-09-23T00:52:51.657Z,3.49
2022-09-23T00:55:25.427Z,3.49
2022-09-23T00:57:55.502Z,3.46
2022-09-23T01:00:23.322Z,3.43
2022-09-23T01:02:50.444Z,3.40
2022-09-23T01:05:18.119Z,3.34
2022-09-23T01:07:45.668Z,3.28
2022-09-23T01:10:14.508Z,3.28
2022-09-23T01:12:52.247Z,3.27
2022-09-23T01:15:25.741Z,3.25
2022-09-23T01:18:12.290Z,3.26
2022-09-23T01:21:14.241Z,3.25
2022-09-23T01:24:17.393Z,3.17
2022-09-23T01:27:02.974Z,3.13
2022-09-23T01:29:53.805Z,3.10
2022-09-23T01:32:26.407Z,3.09
2022-09-23T01:34:56.017Z,3.01
2022-09-23T01:37:39.175Z,2.94
2022-09-23T01:40:14.800Z,2.92
2022-09-23T01:43:06.616Z,2.89
2022-09-23T01:45:44.358Z,2.86
2022-09-23T01:48:34.969Z,2.75
2022-09-23T01:51:33.032Z,2.70
2022-09-23T01:54:16.043Z,2.71
2022-09-23T01:56:52.031Z,2.69
2022-09-23T01:59:26.394Z,2.65
2022-09-23T02:02:08.157Z,2.54
2022-09-23T02:04:45.796Z,2.44
2022-09-23T02:07:24.848Z,2.39
2022-09-23T02:10:02.703Z,2.42
2022-09-23T02:12:34.587Z,2.43
2022-09-23T02:15:15.357Z,2.43
2022-09-23T02:17:53.911Z,2.46
2022-09-23T02:20:29.925Z,2.50
2022-09-23T02:23:08.551Z,2.55
2022-09-23T02:25:47.985Z,2.59
2022-09-23T02:28:24.387Z,2.57
2022-09-23T02:30:59.375Z,2.56
2022-09-23T02:33:37.141Z,2.58
2022-09-23T02:36:09.525Z,2.63
2022-09-23T02:38:42.999Z,2.66
2022-09-23T02:41:32.690Z,2.64
2022-09-23T02:44:07.953Z,2.62
2022-09-23T02:46:37.102Z,2.66
2022-09-23T02:49:13.004Z,2.68
2022-09-23T02:51:40.624Z,2.64
2022-09-23T02:54:10.741Z,2.63
2022-09-23T02:56:37.548Z,2.58
2022-09-23T02:59:05.193Z,2.52
2022-09-23T03:02:07.969Z,2.53
2022-09-23T03:05:19.525Z,2.56
2022-09-23T03:07:51.243Z,2.53
2022-09-23T03:10:40.139Z,2.52
2022-09-23T03:13:26.080Z,2.51
2022-09-23T03:16:05.366Z,2.51
2022-09-23T03:18:50.445Z,2.52
2022-09-23T03:21:35.253Z,2.48
2022-09-23T03:24:07.534Z,2.48
2022-09-23T03:26:37.667Z,2.48
2022-09-23T03:29:09.463Z,2.48
2022-09-23T03:31:38.431Z,2.47
2022-09-23T03:34:13.977Z,2.45
2022-09-23T03:36:52.092Z,2.41
2022-09-23T03:39:34.604Z,2.34
2022-09-23T03:42:07.304Z,2.37
2022-09-23T03:44:39.386Z,2.38
2022-09-23T03:47:06.881Z,2.34
2022-09-23T03:49:37.227Z,2.34
2022-09-23T03:52:04.011Z,2.31
2022-09-23T03:54:31.136Z,2.31
2022-09-23T03:56:58.572Z,2.29
2022-09-23T03:59:26.200Z,2.30
2022-09-23T04:01:54.145Z,2.23
2022-09-23T04:04:21.013Z,2.26
2022-09-23T04:06:47.712Z,2.29
2022-09-23T04:09:14.413Z,2.27
2022-09-23T04:11:41.219Z,2.29
2022-09-23T04:14:08.130Z,2.26
2022-09-23T04:16:34.850Z,2.23
2022-09-23T04:19:01.692Z,2.21
2022-09-23T04:21:31.450Z,2.18
2022-09-23T04:23:58.102Z,2.17
2022-09-23T04:26:24.797Z,2.13
2022-09-23T04:28:51.408Z,2.13
2022-09-23T04:31:18.062Z,2.10
2022-09-23T04:33:44.760Z,2.12
2022-09-23T04:36:11.425Z,2.09
2022-09-23T04:38:38.076Z,2.06
2022-09-23T04:41:09.358Z,2.08
2022-09-23T04:43:36.068Z,2.05
2022-09-23T04:46:05.486Z,2.07
2022-09-23T04:48:33.036Z,2.07
2022-09-23T04:51:07.922Z,2.07
2022-09-23T04:53:39.079Z,2.08
2022-09-23T04:56:10.310Z,2.08
2022-09-23T04:58:37.799Z,2.06
2022-09-23T05:01:13.654Z,2.07
2022-09-23T05:03:41.720Z,2.08
2022-09-23T05:06:11.136Z,2.09
2022-09-23T05:08:37.800Z,2.08
2022-09-23T05:11:05.044Z,2.11
2022-09-23T05:13:35.517Z,2.15
2022-09-23T05:16:05.003Z,2.16
2022-09-23T05:18:32.852Z,2.16
2022-09-23T05:20:59.519Z,2.17
2022-09-23T05:23:27.247Z,2.18
2022-09-23T05:25:59.146Z,2.17
2022-09-23T05:28:28.264Z,2.15
2022-09-23T05:31:20.019Z,2.17
2022-09-23T05:33:55.218Z,2.15
2022-09-23T05:36:22.937Z,2.17
2022-09-23T05:38:51.381Z,2.17
2022-09-23T05:41:20.541Z,2.20
2022-09-23T05:43:47.540Z,2.17
2022-09-23T05:46:17.093Z,2.19
2022-09-23T05:48:46.133Z,2.25
2022-09-23T05:51:19.058Z,2.26
2022-09-23T05:53:47.055Z,2.36
2022-09-23T05:56:15.124Z,2.85
2022-09-23T05:58:41.991Z,3.39
2022-09-23T06:01:13.669Z,3.92
2022-09-23T06:03:40.482Z,4.33
2022-09-23T06:06:11.577Z,4.66
2022-09-23T06:08:38.283Z,4.80
2022-09-23T06:11:08.287Z,5.06
2022-09-23T06:13:38.269Z,5.33
2022-09-23T06:16:10.774Z,5.40
2022-09-23T06:18:45.394Z,5.69
2022-09-23T06:21:17.098Z,6.12
2022-09-23T06:23:45.056Z,6.37
2022-09-23T06:26:14.460Z,6.56
2022-09-23T06:28:43.060Z,6.50
2022-09-23T06:31:15.490Z,6.50
2022-09-23T06:33:43.861Z,6.81
2022-09-23T06:36:11.469Z,7.19
2022-09-23T06:38:44.185Z,7.48
2022-09-23T06:41:12.309Z,7.55
2022-09-23T06:43:39.049Z,7.48
2022-09-23T06:46:07.673Z,7.74
2022-09-23T06:48:37.770Z,7.99
2022-09-23T06:51:07.390Z,8.15
2022-09-23T06:53:34.530Z,8.48
2022-09-23T06:56:11.450Z,8.66
2022-09-23T06:58:39.312Z,8.79
2022-09-23T07:01:09.034Z,8.95
2022-09-23T07:03:36.079Z,9.18
2022-09-23T07:06:03.062Z,9.37
2022-09-23T07:08:31.335Z,9.50
2022-09-23T07:11:00.208Z,9.58
2022-09-23T07:13:28.005Z,9.75
2022-09-23T07:15:58.398Z,9.40
2022-09-23T07:18:26.463Z,9.56
2022-09-23T07:20:53.792Z,9.80
2022-09-23T07:23:20.831Z,10.04
2022-09-23T07:25:50.415Z,10.20
2022-09-23T07:28:17.895Z,10.49
2022-09-23T07:30:56.813Z,10.60
2022-09-23T07:33:32.063Z,10.80
2022-09-23T07:35:59.597Z,10.86
2022-09-23T07:38:30.166Z,11.11
2022-09-23T07:41:09.001Z,11.31
2022-09-23T07:43:36.090Z,11.29
2022-09-23T07:46:11.145Z,11.48
2022-09-23T07:48:39.035Z,11.75
2022-09-23T07:51:25.519Z,11.86
2022-09-23T07:53:53.827Z,11.75
2022-09-23T07:56:22.671Z,11.65
2022-09-23T07:59:00.338Z,11.27
2022-09-23T08:01:29.505Z,11.39
2022-09-23T08:03:58.076Z,11.42
2022-09-23T08:06:25.066Z,11.86
2022-09-23T08:08:53.496Z,11.86
2022-09-23T08:11:20.365Z,11.70
2022-09-23T08:13:47.840Z,11.76
2022-09-23T08:16:14.510Z,11.81
2022-09-23T08:18:45.005Z,11.95
2022-09-23T08:21:12.066Z,11.79
2022-09-23T08:23:38.754Z,11.98
2022-09-23T08:26:11.733Z,12.07
2022-09-23T08:28:44.702Z,12.00
2022-09-23T08:31:14.208Z,12.09
2022-09-23T08:33:41.311Z,12.33
2022-09-23T08:36:08.339Z,12.42
2022-09-23T08:38:34.979Z,12.37
2022-09-23T08:41:19.473Z,12.46
2022-09-23T08:43:53.597Z,12.78
2022-09-23T08:46:26.728Z,12.83
2022-09-23T08:48:54.538Z,13.11
2022-09-23T08:51:35.848Z,13.10
2022-09-23T08:54:02.642Z,13.47
2022-09-23T08:56:30.687Z,13.72
2022-09-23T08:59:21.118Z,13.61
2022-09-23T09:01:59.405Z,13.85
2022-09-23T09:04:44.603Z,14.08
2022-09-23T09:07:37.913Z,14.39
2022-09-23T09:10:12.183Z,14.07
2022-09-23T09:12:38.734Z,14.07
2022-09-23T09:15:12.964Z,14.17
2022-09-23T09:18:06.527Z,14.21
2022-09-23T09:20:48.237Z,14.25
2022-09-23T09:23:28.724Z,13.69
2022-09-23T09:25:59.014Z,13.55
2022-09-23T09:28:43.993Z,14.05
2022-09-23T09:31:22.551Z,14.38
2022-09-23T09:34:06.378Z,14.36
2022-09-23T09:36:48.262Z,14.33
2022-09-23T09:39:15.643Z,14.59
2022-09-23T09:41:47.868Z,14.86
2022-09-23T09:44:26.885Z,14.54
2022-09-23T09:47:35.715Z,14.44
2022-09-23T09:50:09.119Z,14.70
2022-09-23T09:52:39.770Z,14.94
2022-09-23T09:55:12.318Z,14.84
2022-09-23T09:57:52.837Z,14.87
2022-09-23T10:00:22.538Z,15.28
2022-09-23T10:02:53.980Z,15.33
2022-09-23T10:05:27.953Z,15.16
2022-09-23T10:07:55.285Z,15.17
2022-09-23T10:10:32.500Z,15.20
2022-09-23T10:13:15.248Z,14.86
2022-09-23T10:15:45.124Z,15.13
2022-09-23T10:18:34.567Z,15.43
2022-09-23T10:21:07.212Z,15.58
2022-09-23T10:23:38.534Z,15.55
2022-09-23T10:26:08.256Z,15.46
2022-09-23T10:28:47.164Z,15.55
2022-09-23T10:31:17.748Z,15.50
2022-09-23T10:33:54.825Z,15.29
2022-09-23T10:36:21.680Z,15.37
2022-09-23T10:38:52.464Z,15.70
2022-09-23T10:41:54.432Z,15.95
2022-09-23T10:44:52.871Z,16.10
2022-09-23T10:48:05.162Z,16.03
2022-09-23T10:50:42.082Z,15.87
2022-09-23T10:53:28.945Z,15.84
2022-09-23T10:56:30.988Z,15.91
2022-09-23T10:59:18.762Z,15.69
2022-09-23T11:02:02.179Z,15.37
2022-09-23T11:04:59.904Z,15.62
2022-09-23T11:07:37.178Z,15.78
2022-09-23T11:10:46.377Z,15.88
2022-09-23T11:13:16.412Z,14.91
2022-09-23T11:16:01.301Z,15.08
2022-09-23T11:18:33.028Z,15.23
2022-09-23T11:21:06.805Z,15.15
2022-09-23T11:23:43.558Z,15.07
2022-09-23T11:26:41.479Z,15.06
2022-09-23T11:29:36.513Z,14.91
2022-09-23T11:32:19.387Z,14.76
2022-09-23T11:34:55.781Z,14.53
2022-09-23T11:37:29.351Z,14.58
2022-09-23T11:40:04.752Z,14.74
2022-09-23T11:42:37.607Z,14.69
2022-09-23T11:45:16.920Z,14.49
2022-09-23T11:48:10.737Z,14.24
2022-09-23T11:50:50.131Z,14.20
2022-09-23T11:53:51.783Z,14.39
2022-09-23T11:56:49.204Z,14.43
2022-09-23T11:59:37.175Z,14.61
2022-09-23T12:02:31.093Z,14.57
2022-09-23T12:05:23.488Z,14.57
2022-09-23T12:08:12.731Z,14.68
2022-09-23T12:11:08.626Z,14.63
2022-09-23T12:13:48.977Z,14.62
2022-09-23T12:16:21.282Z,14.59
2022-09-23T12:19:11.198Z,14.54
2022-09-23T12:21:50.548Z,14.85
2022-09-23T12:24:34.716Z,14.68
2022-09-23T12:27:06.788Z,14.54
2022-09-23T12:29:35.792Z,14.44
2022-09-23T12:32:07.451Z,14.42
2022-09-23T12:34:49.114Z,14.59
2022-09-23T12:37:27.454Z,14.62
2022-09-23T12:39:59.097Z,14.58
2022-09-23T12:42:30.764Z,14.62
2022-09-23T12:45:17.532Z,14.52
2022-09-23T12:47:44.208Z,14.45
2022-09-23T12:50:48.413Z,14.27
2022-09-23T12:53:32.992Z,14.41
2022-09-23T12:56:01.941Z,14.41
2022-09-23T12:58:39.441Z,14.44
2022-09-23T13:01:09.073Z,14.43
2022-09-23T13:03:54.644Z,14.46
2022-09-23T13:06:39.572Z,14.50
2022-09-23T13:09:20.469Z,14.36
2022-09-23T13:11:48.325Z,14.28
2022-09-23T13:14:27.363Z,14.31
2022-09-23T13:16:57.347Z,14.30
2022-09-23T13:19:27.176Z,14.21
2022-09-23T13:21:53.794Z,14.15
2022-09-23T13:24:23.449Z,14.28
2022-09-23T13:27:05.807Z,14.24
2022-09-23T13:29:38.013Z,14.07
2022-09-23T13:32:06.114Z,13.92
2022-09-23T13:34:34.728Z,13.95
2022-09-23T13:37:23.144Z,13.91
2022-09-23T13:39:50.520Z,13.89
2022-09-23T13:42:29.651Z,13.75
2022-09-23T13:44:59.108Z,13.67
2022-09-23T13:47:29.114Z,13.71
2022-09-23T13:49:56.038Z,13.79
2022-09-23T13:52:27.685Z,13.91
2022-09-23T13:54:54.421Z,13.82
2022-09-23T13:57:32.277Z,13.76
2022-09-23T14:00:16.563Z,13.70
2022-09-23T14:02:43.541Z,13.68
2022-09-23T14:05:12.940Z,13.58
2022-09-23T14:07:40.074Z,13.44
2022-09-23T14:10:08.220Z,13.36
2022-09-23T14:12:39.497Z,13.28
2022-09-23T14:15:07.081Z,13.22
2022-09-23T14:17:33.736Z,13.14
2022-09-23T14:20:00.879Z,13.07
2022-09-23T14:22:29.352Z,13.03
2022-09-23T14:24:57.588Z,12.96
2022-09-23T14:27:33.151Z,12.94
2022-09-23T14:30:02.818Z,12.92
2022-09-23T14:32:30.672Z,12.90
2022-09-23T14:35:00.268Z,12.92
2022-09-23T14:37:51.586Z,12.86
2022-09-23T14:40:25.659Z,12.75
2022-09-23T14:42:59.972Z,12.75
2022-09-23T14:45:30.367Z,12.78
2022-09-23T14:48:00.099Z,12.79
2022-09-23T14:50:47.162Z,12.79
2022-09-23T14:53:22.866Z,12.64
2022-09-23T14:56:22.445Z,12.51
2022-09-23T14:58:53.666Z,12.39
2022-09-23T15:01:31.095Z,12.30
2022-09-23T15:03:59.504Z,12.26
2022-09-23T15:06:27.114Z,12.26
2022-09-23T15:08:56.008Z,12.13
2022-09-23T15:11:23.144Z,12.08
2022-09-23T15:13:52.765Z,11.96
2022-09-23T15:16:27.287Z,11.87
2022-09-23T15:18:59.096Z,11.83
2022-09-23T15:21:33.586Z,11.78
2022-09-23T15:24:00.238Z,11.69
2022-09-23T15:26:45.508Z,11.60
2022-09-23T15:29:12.013Z,11.54
2022-09-23T15:31:39.091Z,11.48
2022-09-23T15:34:06.101Z,11.46
2022-09-23T15:36:32.955Z,11.40
2022-09-23T15:39:05.681Z,11.34
2022-09-23T15:41:33.401Z,11.26
2022-09-23T15:44:29.502Z,11.20
2022-09-23T15:47:00.086Z,11.18
2022-09-23T15:49:34.342Z,11.20
2022-09-23T15:52:02.148Z,11.12
2022-09-23T15:54:29.131Z,11.07
2022-09-23T15:57:00.521Z,11.06
2022-09-23T15:59:28.752Z,11.05
2022-09-23T16:01:56.688Z,11.01
2022-09-23T16:04:23.798Z,10.98
2022-09-23T16:06:50.519Z,10.94
2022-09-23T16:09:17.154Z,10.89
2022-09-23T16:11:46.523Z,10.93
2022-09-23T16:14:15.658Z,10.92
2022-09-23T16:16:45.106Z,10.86
2022-09-23T16:19:12.584Z,10.80
2022-09-23T16:21:40.984Z,10.72
2022-09-23T16:24:18.808Z,10.70
2022-09-23T16:26:48.142Z,10.64
2022-09-23T16:29:15.020Z,10.60
2022-09-23T16:31:42.067Z,10.55
2022-09-23T16:34:08.870Z,10.53
2022-09-23T16:36:41.245Z,10.41
2022-09-23T16:39:10.990Z,10.37
2022-09-23T16:41:37.745Z,10.25
2022-09-23T16:44:07.497Z,10.18
2022-09-23T16:46:35.114Z,10.11
2022-09-23T16:49:02.350Z,10.05
2022-09-23T16:51:32.968Z,9.98
2022-09-23T16:54:00.159Z,9.91
2022-09-23T16:56:29.212Z,9.92
2022-09-23T16:58:56.884Z,9.86
2022-09-23T17:01:44.565Z,9.74
2022-09-23T17:04:12.268Z,9.69
2022-09-23T17:06:50.612Z,9.67
2022-09-23T17:09:19.263Z,9.58
2022-09-23T17:11:48.964Z,9.52
2022-09-23T17:14:16.500Z,9.49
2022-09-23T17:16:43.354Z,9.43
2022-09-23T17:19:11.871Z,9.38
2022-09-23T17:21:39.006Z,9.31
2022-09-23T17:24:06.583Z,9.27
2022-09-23T17:26:33.253Z,9.22
2022-09-23T17:29:02.121Z,9.21
2022-09-23T17:31:29.112Z,9.17
2022-09-23T17:33:55.746Z,9.13
2022-09-23T17:36:22.415Z,9.03
2022-09-23T17:38:53.629Z,9.00
2022-09-23T17:41:21.115Z,8.95
2022-09-23T17:43:48.465Z,8.95
2022-09-23T17:46:18.728Z,8.93
2022-09-23T17:48:46.792Z,8.95
2022-09-23T17:51:16.308Z,8.91
2022-09-23T17:53:45.426Z,8.86
2022-09-23T17:56:13.926Z,8.81
2022-09-23T17:58:41.143Z,8.76
2022-09-23T18:01:13.164Z,8.72
2022-09-23T18:03:43.443Z,8.67
2022-09-23T18:06:19.355Z,8.64
2022-09-23T18:08:48.207Z,8.60
2022-09-23T18:11:21.944Z,8.60
2022-09-23T18:14:16.715Z,8.56
2022-09-23T18:16:45.626Z,8.53
2022-09-23T18:19:15.238Z,8.45
2022-09-23T18:21:45.205Z,8.41
2022-09-23T18:27:00.086Z,8.34
2022-09-23T18:29:27.352Z,8.34
2022-09-23T18:31:54.340Z,8.34
2022-09-23T18:34:22.021Z,8.30
2022-09-23T18:36:48.980Z,8.30
2022-09-23T18:39:15.636Z,8.29
2022-09-23T18:41:42.512Z,8.24
2022-09-23T18:44:09.842Z,8.22
2022-09-23T18:46:36.900Z,8.19
2022-09-23T18:49:22.286Z,8.13
2022-09-23T18:51:54.848Z,8.11
2022-09-23T18:54:23.517Z,8.13
2022-09-23T18:56:52.556Z,8.12
2022-09-23T18:59:23.757Z,8.11
2022-09-23T19:01:51.481Z,8.08
2022-09-23T19:04:20.501Z,8.04
2022-09-23T19:06:48.029Z,8.02
2022-09-23T19:09:15.846Z,8.00
2022-09-23T19:11:42.982Z,7.99
2022-09-23T19:14:11.701Z,7.94
2022-09-23T19:16:41.284Z,7.89
2022-09-23T19:19:08.783Z,7.86
2022-09-23T19:21:36.038Z,7.84
2022-09-23T19:24:06.053Z,7.82
2022-09-23T19:26:39.275Z,7.80
2022-09-23T19:29:08.455Z,7.77
2022-09-23T19:31:40.729Z,7.76
2022-09-23T19:34:13.414Z,7.76
2022-09-23T19:36:42.679Z,7.73
2022-09-23T19:39:31.669Z,7.74
2022-09-23T19:41:59.086Z,7.70
2022-09-23T19:44:27.159Z,7.67
2022-09-23T19:46:56.806Z,7.67
2022-09-23T19:49:25.272Z,7.67
2022-09-23T19:51:55.839Z,7.62
2022-09-23T19:54:23.541Z,7.60
2022-09-23T19:56:50.460Z,7.55
2022-09-23T19:59:19.103Z,7.54
2022-09-23T20:01:46.493Z,7.52
2022-09-23T20:04:13.282Z,7.51
2022-09-23T20:06:41.114Z,7.48
2022-09-23T20:09:07.792Z,7.41
2022-09-23T20:11:35.176Z,7.38
2022-09-23T20:14:04.841Z,7.40
2022-09-23T20:16:37.136Z,7.40
2022-09-23T20:19:05.097Z,7.43
2022-09-23T20:21:34.200Z,7.40
2022-09-23T20:24:01.427Z,7.39
2022-09-23T20:26:46.713Z,7.38
2022-09-23T20:29:13.308Z,7.34
2022-09-23T20:31:43.616Z,7.33
2022-09-23T20:34:11.206Z,7.38
2022-09-23T20:36:40.039Z,7.36
2022-09-23T20:39:07.360Z,7.33
2022-09-23T20:41:37.732Z,7.35
2022-09-23T20:44:07.696Z,7.30
2022-09-23T20:46:34.622Z,7.29
2022-09-23T20:49:02.089Z,7.29
2022-09-23T20:51:28.882Z,7.29
2022-09-23T20:53:55.585Z,7.29
2022-09-23T20:56:22.735Z,7.32
2022-09-23T20:58:50.920Z,7.29
2022-09-23T21:01:18.437Z,7.30
2022-09-23T21:03:47.574Z,7.31
2022-09-23T21:06:17.386Z,7.29
2022-09-23T21:08:44.731Z,7.28
2022-09-23T21:11:16.844Z,7.29
2022-09-23T21:13:49.200Z,7.32
2022-09-23T21:16:17.818Z,7.28
2022-09-23T21:18:45.085Z,7.25
2022-09-23T21:21:14.077Z,7.24
2022-09-23T21:23:41.967Z,7.23
2022-09-23T21:26:13.969Z,7.20
2022-09-23T21:28:45.081Z,7.18
2022-09-23T21:31:22.877Z,7.16
2022-09-23T21:33:56.724Z,7.11
2022-09-23T21:36:24.812Z,7.09
2022-09-23T21:38:52.497Z,7.06
2022-09-23T21:41:19.954Z,7.05
2022-09-23T21:43:48.242Z,7.01
2022-09-23T21:46:17.424Z,7.00
2022-09-23T21:48:44.195Z,6.93
2022-09-23T21:51:15.241Z,6.88
2022-09-23T21:53:43.362Z,6.87
2022-09-23T21:56:16.825Z,6.85
2022-09-23T21:58:46.724Z,6.84
2022-09-23T22:01:21.601Z,6.81
2022-09-23T22:03:58.359Z,6.76
2022-09-23T22:06:30.619Z,6.72
2022-09-23T22:09:00.172Z,6.69
2022-09-23T22:11:50.125Z,6.65
2022-09-23T22:14:19.161Z,6.64
2022-09-23T22:16:46.347Z,6.62
2022-09-23T22:19:15.140Z,6.63
2022-09-23T22:21:44.019Z,6.63
2022-09-23T22:24:12.107Z,6.62
2022-09-23T22:26:42.250Z,6.57
2022-09-23T22:29:30.040Z,6.54
2022-09-23T22:32:15.065Z,6.47
2022-09-23T22:34:50.510Z,6.46
2022-09-23T22:37:20.789Z,6.43
2022-09-23T22:39:47.577Z,6.40
2022-09-23T22:42:14.429Z,6.38
2022-09-23T22:44:41.219Z,6.38
2022-09-23T22:47:09.308Z,6.36
2022-09-23T22:49:36.203Z,6.34
2022-09-23T22:52:04.159Z,6.22
2022-09-23T22:54:34.006Z,6.19
2022-09-23T22:57:03.281Z,6.15
2022-09-23T22:59:30.053Z,6.14
2022-09-23T23:01:57.246Z,6.14
2022-09-23T23:04:24.011Z,6.15
2022-09-23T23:06:51.077Z,6.14
2022-09-23T23:09:18.915Z,6.13
2022-09-23T23:11:46.003Z,6.10
2022-09-23T23:14:15.318Z,6.08
2022-09-23T23:16:42.742Z,6.07
2022-09-23T23:19:13.303Z,6.08
2022-09-23T23:21:43.471Z,6.05
2022-09-23T23:24:24.146Z,6.02
2022-09-23T23:26:52.198Z,6.00
2022-09-23T23:29:21.308Z,5.95
2022-09-23T23:31:48.587Z,5.92
2022-09-23T23:34:18.327Z,5.94
2022-09-23T23:36:45.969Z,5.89
2022-09-23T23:39:13.862Z,5.86
2022-09-23T23:41:41.687Z,5.84
2022-09-23T23:44:08.900Z,5.90
2022-09-23T23:46:37.357Z,5.87
2022-09-23T23:49:04.914Z,5.82
2022-09-23T23:51:32.189Z,5.83
2022-09-23T23:53:59.727Z,5.80
2022-09-23T23:56:27.473Z,5.80
2022-09-23T23:58:59.264Z,5.78
